createdAt,value
2022-10-25T00:02:18.475Z,99328.00
2022-10-25T00:04:48.482Z,99334.00
2022-10-25T00:07:17.038Z,99326.00
2022-10-25T00:09:45.044Z,99329.00
2022-10-25T00:12:13.047Z,99331.00
2022-10-25T00:14:41.083Z,99328.00
2022-10-25T00:17:09.312Z,99329.00
2022-10-25T00:19:37.474Z,99331.00
2022-10-25T00:22:06.827Z,99330.00
2022-10-25T00:24:34.804Z,99333.00
2022-10-25T00:27:02.822Z,99336.00
2022-10-25T00:29:32.099Z,99339.00
2022-10-25T00:32:00.236Z,99340.00
2022-10-25T00:34:28.244Z,99327.00
2022-10-25T00:36:56.276Z,99326.00
2022-10-25T00:39:25.641Z,99323.00
2022-10-25T00:41:53.640Z,99317.00
2022-10-25T00:44:55.501Z,99323.00
2022-10-25T00:47:44.291Z,99328.00
2022-10-25T00:50:26.223Z,99333.00
2022-10-25T00:53:03.848Z,99338.00
2022-10-25T00:55:34.493Z,99339.00
2022-10-25T00:58:09.347Z,99333.00
2022-10-25T01:00:37.895Z,99340.00
2022-10-25T01:03:07.814Z,99340.00
2022-10-25T01:05:36.964Z,99337.00
2022-10-25T01:08:06.915Z,99331.00
2022-10-25T01:10:36.419Z,99344.00
2022-10-25T01:13:05.309Z,99337.00
2022-10-25T01:15:47.845Z,99340.00
2022-10-25T01:18:23.744Z,99338.00
2022-10-25T01:21:45.982Z,99335.00
2022-10-25T01:24:58.946Z,99339.00
2022-10-25T01:28:04.415Z,99342.00
2022-10-25T01:31:09.131Z,99331.00
2022-10-25T01:33:44.951Z,99332.00
2022-10-25T01:36:22.922Z,99325.00
2022-10-25T01:39:01.303Z,99328.00
2022-10-25T01:41:40.888Z,99329.00
2022-10-25T01:44:30.024Z,99327.00
2022-10-25T01:47:04.871Z,99327.00
2022-10-25T01:49:43.958Z,99333.00
2022-10-25T01:52:12.010Z,99327.00
2022-10-25T01:54:40.546Z,99331.00
2022-10-25T01:57:28.618Z,99325.00
2022-10-25T02:00:11.299Z,99328.00
2022-10-25T02:03:11.596Z,99333.00
2022-10-25T02:06:00.620Z,99345.00
2022-10-25T02:08:37.998Z,99329.00
2022-10-25T02:11:18.135Z,99330.00
2022-10-25T02:14:00.289Z,99338.00
2022-10-25T02:16:33.361Z,99343.00
2022-10-25T02:19:06.650Z,99336.00
2022-10-25T02:21:37.750Z,99332.00
2022-10-25T02:24:12.167Z,99331.00
2022-10-25T02:26:43.339Z,99344.00
2022-10-25T02:29:13.918Z,99342.00
2022-10-25T02:31:42.565Z,99335.00
2022-10-25T02:34:12.338Z,99341.00
2022-10-25T02:36:40.319Z,99342.00
2022-10-25T02:39:09.377Z,99339.00
2022-10-25T02:41:37.387Z,99334.00
2022-10-25T02:44:05.665Z,99333.00
2022-10-25T02:46:33.681Z,99338.00
2022-10-25T02:49:01.686Z,99337.00
2022-10-25T02:51:31.187Z,99343.00
2022-10-25T02:53:59.290Z,99349.00
2022-10-25T02:56:27.312Z,99345.00
2022-10-25T02:58:58.698Z,99346.00
2022-10-25T03:01:27.270Z,99352.00
2022-10-25T03:03:55.344Z,99354.00
2022-10-25T03:06:23.585Z,99353.00
2022-10-25T03:08:52.925Z,99358.00
2022-10-25T03:11:21.253Z,99363.00
2022-10-25T03:13:49.293Z,99357.00
2022-10-25T03:16:17.242Z,99367.00
2022-10-25T03:18:45.267Z,99359.00
2022-10-25T03:21:13.345Z,99360.00
2022-10-25T03:23:41.332Z,99363.00
2022-10-25T03:26:10.671Z,99365.00
2022-10-25T03:28:38.658Z,99362.00
2022-10-25T03:31:12.743Z,99359.00
2022-10-25T03:33:41.501Z,99355.00
2022-10-25T03:36:09.810Z,99356.00
2022-10-25T03:38:37.828Z,99364.00
2022-10-25T03:41:06.605Z,99371.00
2022-10-25T03:43:36.037Z,99384.00
2022-10-25T03:46:04.184Z,99381.00
2022-10-25T03:48:32.223Z,99385.00
2022-10-25T03:51:00.271Z,99390.00
2022-10-25T03:53:28.367Z,99386.00
2022-10-25T03:55:56.369Z,99384.00
2022-10-25T03:58:24.362Z,99389.00
2022-10-25T04:00:53.837Z,99378.00
2022-10-25T04:03:21.875Z,99386.00
2022-10-25T04:05:49.888Z,99403.00
2022-10-25T04:08:17.929Z,99407.00
2022-10-25T04:10:45.920Z,99410.00
2022-10-25T04:13:13.923Z,99406.00
2022-10-25T04:15:41.915Z,99409.00
2022-10-25T04:18:11.279Z,99418.00
2022-10-25T04:20:39.355Z,99422.00
2022-10-25T04:23:07.381Z,99422.00
2022-10-25T04:25:35.491Z,99416.00
2022-10-25T04:28:04.520Z,99418.00
2022-10-25T04:30:36.483Z,99416.00
2022-10-25T04:33:06.760Z,99418.00
2022-10-25T04:35:36.126Z,99419.00
2022-10-25T04:38:04.153Z,99427.00
2022-10-25T04:40:32.167Z,99417.00
2022-10-25T04:43:02.224Z,99421.00
2022-10-25T04:45:30.759Z,99419.00
2022-10-25T04:48:01.585Z,99418.00
2022-10-25T04:50:29.628Z,99425.00
2022-10-25T04:52:58.958Z,99434.00
2022-10-25T04:55:26.973Z,99439.00
2022-10-25T04:57:54.984Z,99434.00
2022-10-25T05:00:23.216Z,99429.00
2022-10-25T05:02:53.271Z,99436.00
2022-10-25T05:05:23.168Z,99433.00
2022-10-25T05:07:51.433Z,99437.00
2022-10-25T05:10:21.008Z,99440.00
2022-10-25T05:12:49.251Z,99445.00
2022-10-25T05:15:17.578Z,99446.00
2022-10-25T05:17:45.589Z,99449.00
2022-10-25T05:20:13.602Z,99448.00
2022-10-25T05:22:41.721Z,99447.00
2022-10-25T05:25:10.539Z,99444.00
2022-10-25T05:27:40.460Z,99444.00
2022-10-25T05:30:10.282Z,99446.00
2022-10-25T05:32:38.708Z,99442.00
2022-10-25T05:35:07.388Z,99448.00
2022-10-25T05:37:35.417Z,99450.00
2022-10-25T05:40:03.455Z,99448.00
2022-10-25T05:42:31.454Z,99443.00
2022-10-25T05:45:00.795Z,99458.00
2022-10-25T05:47:28.789Z,99452.00
2022-10-25T05:49:56.828Z,99453.00
2022-10-25T05:52:24.813Z,99464.00
2022-10-25T05:54:52.797Z,99467.00
2022-10-25T05:57:21.418Z,99465.00
2022-10-25T05:59:49.417Z,99469.00
2022-10-25T06:02:18.989Z,99468.00
2022-10-25T06:04:51.606Z,99469.00
2022-10-25T06:07:20.801Z,99488.00
2022-10-25T06:09:48.815Z,99484.00
2022-10-25T06:12:16.839Z,99486.00
2022-10-25T06:14:44.860Z,99488.00
2022-10-25T06:17:13.898Z,99496.00
2022-10-25T06:19:43.257Z,99484.00
2022-10-25T06:22:11.446Z,99501.00
2022-10-25T06:24:39.760Z,99504.00
2022-10-25T06:27:07.798Z,99509.00
2022-10-25T06:29:35.800Z,99508.00
2022-10-25T06:32:03.812Z,99508.00
2022-10-25T06:34:31.840Z,99508.00
2022-10-25T06:37:01.202Z,99515.00
2022-10-25T06:39:29.195Z,99518.00
2022-10-25T06:41:57.182Z,99510.00
2022-10-25T06:44:25.297Z,99517.00
2022-10-25T06:47:15.930Z,99518.00
2022-10-25T06:49:41.466Z,99514.00
2022-10-25T06:52:10.818Z,99519.00
2022-10-25T06:54:38.851Z,99516.00
2022-10-25T06:57:06.861Z,99523.00
2022-10-25T06:59:34.945Z,99532.00
2022-10-25T07:02:03.169Z,99530.00
2022-10-25T07:04:32.467Z,99530.00
2022-10-25T07:07:00.549Z,99526.00
2022-10-25T07:09:30.385Z,99529.00
2022-10-25T07:11:58.410Z,99528.00
2022-10-25T07:14:26.389Z,99538.00
2022-10-25T07:16:54.421Z,99532.00
2022-10-25T07:19:23.874Z,99536.00
2022-10-25T07:21:52.261Z,99542.00
2022-10-25T07:24:20.272Z,99546.00
2022-10-25T07:26:49.615Z,99545.00
2022-10-25T07:29:17.667Z,99540.00
2022-10-25T07:31:45.829Z,99540.00
2022-10-25T07:34:16.046Z,99549.00
2022-10-25T07:36:44.241Z,99548.00
2022-10-25T07:39:12.229Z,99550.00
2022-10-25T07:41:40.299Z,99546.00
2022-10-25T07:44:15.465Z,99540.00
2022-10-25T07:46:44.357Z,99553.00
2022-10-25T07:49:12.455Z,99557.00
2022-10-25T07:51:40.641Z,99547.00
2022-10-25T07:54:08.980Z,99547.00
2022-10-25T07:56:36.977Z,99546.00
2022-10-25T07:59:05.005Z,99546.00
2022-10-25T08:01:34.450Z,99546.00
2022-10-25T08:04:02.544Z,99553.00
2022-10-25T08:06:30.546Z,99553.00
2022-10-25T08:09:05.451Z,99556.00
2022-10-25T08:11:43.274Z,99549.00
2022-10-25T08:14:11.394Z,99555.00
2022-10-25T08:16:40.743Z,99554.00
2022-10-25T08:19:08.851Z,99562.00
2022-10-25T08:21:36.880Z,99552.00
2022-10-25T08:24:05.543Z,99550.00
2022-10-25T08:26:36.707Z,99548.00
2022-10-25T08:29:05.544Z,99565.00
2022-10-25T08:31:33.682Z,99550.00
2022-10-25T08:34:03.166Z,99552.00
2022-10-25T08:36:31.341Z,99551.00
2022-10-25T08:38:59.379Z,99554.00
2022-10-25T08:41:41.917Z,99552.00
2022-10-25T08:44:25.324Z,99550.00
2022-10-25T08:47:02.913Z,99565.00
2022-10-25T08:49:50.803Z,99571.00
2022-10-25T08:52:27.601Z,99580.00
2022-10-25T08:55:03.157Z,99573.00
2022-10-25T08:57:38.319Z,99580.00
2022-10-25T09:00:17.286Z,99582.00
2022-10-25T09:02:53.463Z,99580.00
2022-10-25T09:05:38.271Z,99595.00
2022-10-25T09:08:40.860Z,99592.00
2022-10-25T09:11:23.207Z,99602.00
2022-10-25T09:14:00.408Z,99612.00
2022-10-25T09:16:39.638Z,99606.00
2022-10-25T09:19:17.852Z,99606.00
2022-10-25T09:21:54.192Z,99603.00
2022-10-25T09:24:28.612Z,99607.00
2022-10-25T09:27:07.095Z,99608.00
2022-10-25T09:29:39.470Z,99614.00
2022-10-25T09:32:18.208Z,99611.00
2022-10-25T09:34:46.895Z,99600.00
2022-10-25T09:37:23.263Z,99610.00
2022-10-25T09:39:56.016Z,99615.00
2022-10-25T09:42:31.531Z,99613.00
2022-10-25T09:45:07.558Z,99613.00
2022-10-25T09:47:44.868Z,99624.00
2022-10-25T09:50:24.547Z,99622.00
2022-10-25T09:53:06.385Z,99624.00
2022-10-25T09:55:41.155Z,99608.00
2022-10-25T09:58:19.058Z,99632.00
2022-10-25T10:00:47.270Z,99633.00
2022-10-25T10:03:16.041Z,99643.00
2022-10-25T10:05:53.767Z,99637.00
2022-10-25T10:08:23.379Z,99644.00
2022-10-25T10:10:54.154Z,99641.00
2022-10-25T10:13:33.832Z,99644.00
2022-10-25T10:16:07.035Z,99639.00
2022-10-25T10:18:35.958Z,99645.00
2022-10-25T10:21:13.462Z,99647.00
2022-10-25T10:23:53.203Z,99650.00
2022-10-25T10:26:28.092Z,99643.00
2022-10-25T10:29:15.434Z,99649.00
2022-10-25T10:31:50.981Z,99652.00
2022-10-25T10:34:28.098Z,99649.00
2022-10-25T10:37:13.958Z,99645.00
2022-10-25T10:39:52.882Z,99642.00
2022-10-25T10:42:24.088Z,99644.00
2022-10-25T10:45:17.595Z,99643.00
2022-10-25T10:47:56.909Z,99641.00
2022-10-25T10:50:31.882Z,99645.00
2022-10-25T10:53:02.626Z,99643.00
2022-10-25T10:55:35.361Z,99636.00
2022-10-25T10:58:06.786Z,99642.00
2022-10-25T11:00:36.299Z,99643.00
2022-10-25T11:03:04.630Z,99647.00
2022-10-25T11:05:35.932Z,99635.00
2022-10-25T11:08:18.923Z,99638.00
2022-10-25T11:10:48.418Z,99638.00
2022-10-25T11:13:19.229Z,99611.00
2022-10-25T11:16:38.083Z,99639.00
2022-10-25T11:19:25.274Z,99641.00
2022-10-25T11:22:18.336Z,99646.00
2022-10-25T11:25:05.250Z,99647.00
2022-10-25T11:27:54.247Z,99650.00
2022-10-25T11:30:24.415Z,99648.00
2022-10-25T11:33:21.556Z,99642.00
2022-10-25T11:36:14.609Z,99638.00
2022-10-25T11:39:02.666Z,99641.00
2022-10-25T11:41:46.235Z,99632.00
2022-10-25T11:44:49.597Z,99647.00
2022-10-25T11:47:34.311Z,99639.00
2022-10-25T11:50:23.730Z,99647.00
2022-10-25T11:53:23.041Z,99644.00
2022-10-25T11:55:58.546Z,99651.00
2022-10-25T11:58:46.092Z,99652.00
2022-10-25T12:01:49.237Z,99655.00
2022-10-25T12:04:40.870Z,99640.00
2022-10-25T12:07:19.973Z,99646.00
2022-10-25T12:10:03.184Z,99647.00
2022-10-25T12:12:43.981Z,99654.00
2022-10-25T12:15:22.205Z,99655.00
2022-10-25T12:17:52.897Z,99652.00
2022-10-25T12:20:26.945Z,99648.00
2022-10-25T12:22:59.498Z,99649.00
2022-10-25T12:25:32.431Z,99653.00
2022-10-25T12:28:11.543Z,99642.00
2022-10-25T12:30:43.524Z,99633.00
2022-10-25T12:33:21.640Z,99646.00
2022-10-25T12:35:55.172Z,99645.00
2022-10-25T12:38:34.074Z,99649.00
2022-10-25T12:41:09.706Z,99639.00
2022-10-25T12:43:48.574Z,99639.00
2022-10-25T12:46:59.640Z,99648.00
2022-10-25T12:49:54.097Z,99643.00
2022-10-25T12:52:34.028Z,99647.00
2022-10-25T12:55:33.263Z,99646.00
2022-10-25T12:58:33.641Z,99648.00
2022-10-25T13:01:26.406Z,99652.00
2022-10-25T13:04:23.421Z,99645.00
2022-10-25T13:06:54.671Z,99645.00
2022-10-25T13:09:27.100Z,99651.00
2022-10-25T13:12:00.182Z,99653.00
2022-10-25T13:14:32.619Z,99648.00
2022-10-25T13:18:02.456Z,99648.00
2022-10-25T13:20:53.159Z,99657.00
2022-10-25T13:24:02.426Z,99650.00
2022-10-25T13:27:15.718Z,99652.00
2022-10-25T13:30:25.322Z,99663.00
2022-10-25T13:33:36.109Z,99663.00
2022-10-25T13:36:06.474Z,99660.00
2022-10-25T13:38:39.953Z,99658.00
2022-10-25T13:41:20.624Z,99661.00
2022-10-25T13:44:00.700Z,99661.00
2022-10-25T13:46:36.682Z,99669.00
2022-10-25T13:49:28.264Z,99665.00
2022-10-25T13:51:58.636Z,99669.00
2022-10-25T13:54:41.415Z,99680.00
2022-10-25T13:57:48.499Z,99669.00
2022-10-25T14:00:40.836Z,99669.00
2022-10-25T14:03:35.819Z,99681.00
2022-10-25T14:06:24.832Z,99677.00
2022-10-25T14:09:29.078Z,99678.00
2022-10-25T14:12:15.612Z,99680.00
2022-10-25T14:15:04.559Z,99673.00
2022-10-25T14:17:37.763Z,99681.00
2022-10-25T14:20:20.644Z,99680.00
2022-10-25T14:22:54.427Z,99674.00
2022-10-25T14:25:25.979Z,99681.00
2022-10-25T14:28:07.969Z,99682.00
2022-10-25T14:30:42.709Z,99670.00
2022-10-25T14:33:25.667Z,99681.00
2022-10-25T14:35:57.874Z,99677.00
2022-10-25T14:38:28.462Z,99672.00
2022-10-25T14:40:59.401Z,99675.00
2022-10-25T14:43:33.715Z,99676.00
2022-10-25T14:46:14.208Z,99662.00
2022-10-25T14:48:45.205Z,99675.00
2022-10-25T14:51:21.563Z,99669.00
2022-10-25T14:53:54.888Z,99659.00
2022-10-25T14:56:30.295Z,99668.00
2022-10-25T14:58:59.815Z,99671.00
2022-10-25T15:01:30.198Z,99659.00
2022-10-25T15:04:01.962Z,99665.00
2022-10-25T15:06:33.255Z,99662.00
2022-10-25T15:09:40.790Z,99663.00
2022-10-25T15:12:18.931Z,99662.00
2022-10-25T15:14:48.280Z,99653.00
2022-10-25T15:17:26.365Z,99660.00
2022-10-25T15:20:27.202Z,99661.00
2022-10-25T15:23:05.419Z,99651.00
2022-10-25T15:25:39.240Z,99658.00
2022-10-25T15:28:13.346Z,99659.00
2022-10-25T15:30:58.625Z,99659.00
2022-10-25T15:33:31.275Z,99662.00
2022-10-25T15:36:02.127Z,99643.00
2022-10-25T15:38:54.194Z,99664.00
2022-10-25T15:41:21.695Z,99665.00
2022-10-25T15:43:49.974Z,99678.00
2022-10-25T15:46:29.794Z,99689.00
2022-10-25T15:49:03.955Z,99677.00
2022-10-25T15:51:34.708Z,99664.00
2022-10-25T15:54:02.800Z,99649.00
2022-10-25T15:56:31.066Z,99646.00
2022-10-25T15:59:01.319Z,99677.00
2022-10-25T16:01:29.629Z,99677.00
2022-10-25T16:03:59.148Z,99685.00
2022-10-25T16:06:28.449Z,99681.00
2022-10-25T16:08:56.501Z,99682.00
2022-10-25T16:11:25.033Z,99682.00
2022-10-25T16:13:54.269Z,99695.00
2022-10-25T16:16:42.300Z,99681.00
2022-10-25T16:19:16.604Z,99697.00
2022-10-25T16:21:45.611Z,99695.00
2022-10-25T16:24:14.670Z,99695.00
2022-10-25T16:26:45.766Z,99693.00
2022-10-25T16:29:19.171Z,99698.00
2022-10-25T16:31:47.443Z,99692.00
2022-10-25T16:34:19.335Z,99691.00
2022-10-25T16:36:49.296Z,99702.00
2022-10-25T16:39:17.947Z,99704.00
2022-10-25T16:41:48.227Z,99710.00
2022-10-25T16:44:18.878Z,99713.00
2022-10-25T16:46:47.286Z,99713.00
2022-10-25T16:49:16.948Z,99711.00
2022-10-25T16:51:45.176Z,99712.00
2022-10-25T16:54:15.245Z,99707.00
2022-10-25T16:56:43.606Z,99717.00
2022-10-25T16:59:11.653Z,99727.00
2022-10-25T17:01:43.709Z,99728.00
2022-10-25T17:04:14.158Z,99726.00
2022-10-25T17:06:44.102Z,99720.00
2022-10-25T17:09:12.762Z,99726.00
2022-10-25T17:11:41.027Z,99719.00
2022-10-25T17:14:10.535Z,99720.00
2022-10-25T17:16:41.888Z,99723.00
2022-10-25T17:19:10.762Z,99734.00
2022-10-25T17:21:40.168Z,99743.00
2022-10-25T17:24:10.121Z,99739.00
2022-10-25T17:26:39.199Z,99743.00
2022-10-25T17:29:07.484Z,99743.00
2022-10-25T17:31:36.250Z,99721.00
2022-10-25T17:34:05.247Z,99747.00
2022-10-25T17:36:33.501Z,99744.00
2022-10-25T17:39:02.453Z,99749.00
2022-10-25T17:41:32.628Z,99745.00
2022-10-25T17:44:00.924Z,99738.00
2022-10-25T17:46:32.418Z,99742.00
2022-10-25T17:49:05.632Z,99740.00
2022-10-25T17:51:35.668Z,99750.00
2022-10-25T17:54:04.238Z,99739.00
2022-10-25T17:56:33.873Z,99752.00
2022-10-25T17:59:04.374Z,99758.00
2022-10-25T18:01:35.348Z,99752.00
2022-10-25T18:04:04.140Z,99752.00
2022-10-25T18:06:32.330Z,99766.00
2022-10-25T18:09:03.002Z,99749.00
2022-10-25T18:11:32.849Z,99756.00
2022-10-25T18:14:02.616Z,99749.00
2022-10-25T18:16:32.532Z,99761.00
2022-10-25T18:19:04.026Z,99756.00
2022-10-25T18:21:34.388Z,99746.00
2022-10-25T18:24:05.526Z,99732.00
2022-10-25T18:26:36.405Z,99750.00
2022-10-25T18:29:04.800Z,99743.00
2022-10-25T18:31:33.087Z,99749.00
2022-10-25T18:34:04.685Z,99755.00
2022-10-25T18:36:33.748Z,99752.00
2022-10-25T18:39:01.948Z,99752.00
2022-10-25T18:41:34.859Z,99757.00
2022-10-25T18:44:03.676Z,99759.00
2022-10-25T18:46:32.642Z,99757.00
2022-10-25T18:49:01.816Z,99748.00
2022-10-25T18:51:31.965Z,99747.00
2022-10-25T18:54:02.369Z,99746.00
2022-10-25T18:56:32.333Z,99746.00
2022-10-25T18:59:02.108Z,99747.00
2022-10-25T19:01:32.683Z,99734.00
2022-10-25T19:04:02.365Z,99739.00
2022-10-25T19:06:31.185Z,99748.00
2022-10-25T19:09:00.851Z,99745.00
2022-10-25T19:11:28.996Z,99747.00
2022-10-25T19:13:58.012Z,99744.00
2022-10-25T19:16:27.539Z,99747.00
2022-10-25T19:18:55.666Z,99731.00
2022-10-25T19:21:23.939Z,99739.00
2022-10-25T19:23:54.433Z,99741.00
2022-10-25T19:26:23.703Z,99752.00
2022-10-25T19:28:58.446Z,99756.00
2022-10-25T19:31:29.613Z,99753.00
2022-10-25T19:34:00.470Z,99750.00
2022-10-25T19:36:30.487Z,99752.00
2022-10-25T19:38:59.178Z,99759.00
2022-10-25T19:41:27.916Z,99772.00
2022-10-25T19:43:57.109Z,99767.00
2022-10-25T19:46:27.054Z,99762.00
2022-10-25T19:48:56.170Z,99770.00
2022-10-25T19:51:24.571Z,99766.00
2022-10-25T19:53:53.000Z,99766.00
2022-10-25T19:56:23.426Z,99761.00
2022-10-25T19:58:52.771Z,99767.00
2022-10-25T20:01:24.180Z,99766.00
2022-10-25T20:03:57.393Z,99766.00
2022-10-25T20:06:28.799Z,99756.00
2022-10-25T20:08:58.900Z,99766.00
2022-10-25T20:11:28.543Z,99755.00
2022-10-25T20:13:59.060Z,99761.00
2022-10-25T20:16:28.683Z,99764.00
2022-10-25T20:19:00.766Z,99768.00
2022-10-25T20:21:33.788Z,99768.00
2022-10-25T20:24:05.394Z,99766.00
2022-10-25T20:26:36.318Z,99771.00
2022-10-25T20:29:08.149Z,99785.00
2022-10-25T20:31:36.546Z,99771.00
2022-10-25T20:34:05.965Z,99771.00
2022-10-25T20:36:34.008Z,99778.00
2022-10-25T20:39:02.079Z,99775.00
2022-10-25T20:41:31.793Z,99774.00
2022-10-25T20:44:03.717Z,99781.00
2022-10-25T20:46:35.072Z,99773.00
2022-10-25T20:49:07.292Z,99777.00
2022-10-25T20:51:36.360Z,99787.00
2022-10-25T20:54:09.165Z,99778.00
2022-10-25T20:56:39.193Z,99786.00
2022-10-25T20:59:08.036Z,99782.00
2022-10-25T21:01:36.319Z,99784.00
2022-10-25T21:04:06.195Z,99786.00
2022-10-25T21:06:34.294Z,99793.00
2022-10-25T21:09:02.490Z,99788.00
2022-10-25T21:11:30.530Z,99793.00
2022-10-25T21:13:58.504Z,99791.00
2022-10-25T21:16:26.519Z,99792.00
2022-10-25T21:18:54.535Z,99785.00
2022-10-25T21:21:23.885Z,99784.00
2022-10-25T21:23:56.778Z,99789.00
2022-10-25T21:26:25.310Z,99783.00
2022-10-25T21:28:53.523Z,99789.00
2022-10-25T21:31:21.718Z,99788.00
2022-10-25T21:33:51.286Z,99793.00
2022-10-25T21:36:22.819Z,99793.00
2022-10-25T21:38:50.844Z,99788.00
2022-10-25T21:41:26.544Z,99781.00
2022-10-25T21:43:56.136Z,99784.00
2022-10-25T21:46:27.094Z,99779.00
2022-10-25T21:48:55.880Z,99771.00
2022-10-25T21:51:25.797Z,99783.00
2022-10-25T21:53:54.412Z,99787.00
2022-10-25T21:56:30.032Z,99784.00
2022-10-25T21:59:00.470Z,99781.00
2022-10-25T22:01:30.947Z,99779.00
2022-10-25T22:03:59.102Z,99786.00
2022-10-25T22:06:28.918Z,99783.00
2022-10-25T22:08:57.894Z,99774.00
2022-10-25T22:11:28.832Z,99793.00
2022-10-25T22:13:59.464Z,99782.00
2022-10-25T22:16:29.408Z,99781.00
2022-10-25T22:19:00.018Z,99785.00
2022-10-25T22:21:32.633Z,99788.00
2022-10-25T22:24:00.910Z,99783.00
2022-10-25T22:26:29.365Z,99773.00
2022-10-25T22:28:59.590Z,99770.00
2022-10-25T22:31:29.751Z,99785.00
2022-10-25T22:33:59.991Z,99776.00
2022-10-25T22:36:32.353Z,99777.00
2022-10-25T22:39:00.765Z,99777.00
2022-10-25T22:41:30.886Z,99779.00
2022-10-25T22:43:59.425Z,99776.00
2022-10-25T22:46:30.954Z,99780.00
2022-10-25T22:49:01.318Z,99778.00
2022-10-25T22:51:30.763Z,99776.00
2022-10-25T22:53:59.044Z,99778.00
2022-10-25T22:56:29.612Z,99772.00
2022-10-25T22:59:00.694Z,99782.00
2022-10-25T23:01:31.061Z,99785.00
2022-10-25T23:04:00.480Z,99788.00
2022-10-25T23:06:32.713Z,99792.00
2022-10-25T23:09:03.842Z,99785.00
2022-10-25T23:11:33.820Z,99785.00
2022-10-25T23:14:03.221Z,99782.00
2022-10-25T23:16:31.337Z,99771.00
2022-10-25T23:18:59.598Z,99775.00
2022-10-25T23:21:30.947Z,99781.00
2022-10-25T23:24:01.056Z,99772.00
2022-10-25T23:26:31.772Z,99779.00
2022-10-25T23:29:01.068Z,99777.00
2022-10-25T23:31:30.290Z,99775.00
2022-10-25T23:34:01.013Z,99768.00
2022-10-25T23:36:37.414Z,99776.00
2022-10-25T23:39:08.641Z,99773.00
2022-10-25T23:41:37.597Z,99775.00
2022-10-25T23:44:06.058Z,99767.00
2022-10-25T23:46:34.058Z,99777.00
2022-10-25T23:49:02.108Z,99770.00
2022-10-25T23:51:31.487Z,99779.00
2022-10-25T23:53:59.558Z,99773.00
2022-10-25T23:56:27.701Z,99769.00
2022-10-25T23:58:55.708Z,99776.00
